Time;durP1;ratioP1;P1;durP2;ratioP2;P2;SDS_P1;SDS_P2;PMS_P1;PMS_P2;Temp;Humidity;BMP_temperature;BMP_pressure;BME280_temperature;BME280_humidity;BME280_pressure;Samples;Min_cycle;Max_cycle;Signal;HPM_P1;HPM_P2
2021/12/22 00:00:53;;;;;;;460.58;239.00;;;;;;;9.64;100.00;98918.34;4847442;29;20145;-63
2021/12/22 00:03:31;;;;;;;461.38;237.57;;;;;;;9.59;100.00;98909.88;4844527;29;20446;-63
2021/12/22 00:06:31;;;;;;;466.42;237.63;;;;;;;9.73;100.00;98904.44;4860293;29;20061;-64
2021/12/22 00:09:08;;;;;;;457.25;236.77;;;;;;;9.75;100.00;98895.78;4861315;29;20750;-64
2021/12/22 00:11:58;;;;;;;471.83;243.38;;;;;;;9.64;100.00;98891.78;4855839;29;20549;-63
2021/12/22 00:14:48;;;;;;;461.90;238.80;;;;;;;9.56;100.00;98903.09;4856836;29;20055;-63
2021/12/22 00:17:44;;;;;;;458.95;238.90;;;;;;;9.48;100.00;98901.56;4858235;29;20068;-63
2021/12/22 00:20:20;;;;;;;466.98;241.02;;;;;;;9.46;100.00;98904.19;4858370;29;20049;-64
2021/12/22 00:23:12;;;;;;;487.90;248.75;;;;;;;9.51;100.00;98915.19;4857934;29;20164;-64
2021/12/22 00:25:55;;;;;;;479.90;249.82;;;;;;;9.52;100.00;98908.31;4861658;29;20521;-63
2021/12/22 00:28:51;;;;;;;489.25;254.65;;;;;;;9.59;100.00;98905.59;4870638;29;20149;-64
2021/12/22 00:31:27;;;;;;;494.08;259.08;;;;;;;9.50;100.00;98899.78;4850959;29;20144;-63
2021/12/22 00:34:17;;;;;;;498.13;251.80;;;;;;;9.50;100.00;98903.22;4866068;29;20064;-64
2021/12/22 00:37:00;;;;;;;490.40;256.45;;;;;;;9.50;100.00;98899.78;4865570;29;20061;-64
2021/12/22 00:39:50;;;;;;;490.50;253.63;;;;;;;9.61;100.00;98910.69;4856087;29;20045;-64
2021/12/22 00:42:33;;;;;;;518.28;264.67;;;;;;;9.51;100.00;98906.63;4851601;29;20133;-64
2021/12/22 00:45:24;;;;;;;493.70;256.98;;;;;;;9.59;100.00;98915.03;4857559;29;20049;-63
2021/12/22 00:48:08;;;;;;;482.42;254.40;;;;;;;9.44;100.00;98923.94;4858919;29;20106;-63
2021/12/22 00:51:03;;;;;;;487.23;253.75;;;;;;;9.63;100.00;98921.81;4867491;29;20139;-64
2021/12/22 00:53:51;;;;;;;505.35;264.27;;;;;;;9.53;100.00;98918.59;4845724;29;20435;-64
2021/12/22 00:56:39;;;;;;;513.60;263.17;;;;;;;9.46;100.00;98906.75;4834102;29;20448;-63
2021/12/22 00:59:21;;;;;;;484.80;254.20;;;;;;;9.56;100.00;98923.69;4852228;29;20502;-63
2021/12/22 01:02:13;;;;;;;487.98;256.10;;;;;;;9.48;100.00;98935.00;4833510;29;20132;-64
2021/12/22 01:04:55;;;;;;;487.75;254.65;;;;;;;9.37;100.00;98930.09;4845929;29;20073;-63
2021/12/22 01:07:44;;;;;;;485.50;253.45;;;;;;;9.42;100.00;98932.53;4835713;29;20054;-64
2021/12/22 01:10:33;;;;;;;488.42;255.10;;;;;;;9.50;100.00;98936.63;4829218;29;20132;-63
2021/12/22 01:13:17;;;;;;;508.88;261.15;;;;;;;9.45;100.00;98935.91;4850089;29;20049;-64
2021/12/22 01:16:05;;;;;;;499.45;256.27;;;;;;;9.45;100.00;98933.34;4840281;29;20061;-63
2021/12/22 01:18:48;;;;;;;488.42;252.48;;;;;;;9.29;100.00;98934.53;4842859;29;20050;-63
2021/12/22 01:21:44;;;;;;;492.25;251.20;;;;;;;9.28;100.00;98945.69;4841103;29;20056;-63
2021/12/22 01:24:33;;;;;;;480.73;254.40;;;;;;;9.35;100.00;98954.97;4844965;29;20064;-64
2021/12/22 01:27:26;;;;;;;491.63;256.98;;;;;;;9.17;100.00;98955.38;4839142;29;20152;-64
2021/12/22 01:30:29;;;;;;;495.27;256.97;;;;;;;9.34;100.00;98948.13;4844784;29;20065;-64
2021/12/22 01:33:13;;;;;;;497.40;255.60;;;;;;;9.37;100.00;98948.06;4847631;29;20054;-64
2021/12/22 01:36:03;;;;;;;485.65;252.45;;;;;;;9.36;100.00;98955.81;4839783;29;20110;-64
2021/12/22 01:38:45;;;;;;;493.60;255.93;;;;;;;9.32;100.00;98955.06;4822918;29;20062;-64
2021/12/22 01:41:36;;;;;;;494.58;250.80;;;;;;;9.15;100.00;98949.41;4833227;29;20054;-64
2021/12/22 01:44:35;;;;;;;488.65;250.40;;;;;;;9.23;100.00;98950.09;4836051;29;20053;-63
2021/12/22 01:50:37;;;;;;;475.38;242.57;;;;;;;8.93;100.00;98935.28;4827997;29;20497;-63
2021/12/22 01:53:48;;;;;;;461.30;237.20;;;;;;;8.79;100.00;98933.81;4844240;29;20056;-63
2021/12/22 01:56:27;;;;;;;476.70;241.38;;;;;;;8.65;100.00;98935.78;4835382;29;20092;-64
2021/12/22 01:59:17;;;;;;;465.08;242.45;;;;;;;8.62;100.00;98938.41;4832280;29;20137;-65
2021/12/22 02:02:11;;;;;;;476.33;240.27;;;;;;;8.58;100.00;98939.34;4857105;29;20050;-64
2021/12/22 02:04:54;;;;;;;481.88;239.27;;;;;;;8.61;100.00;98946.16;4831716;29;20078;-64
2021/12/22 02:07:45;;;;;;;478.77;236.90;;;;;;;8.58;100.00;98947.06;4835310;29;20761;-65
2021/12/22 02:10:47;;;;;;;479.40;238.98;;;;;;;8.57;100.00;98939.38;4821152;29;20150;-64
2021/12/22 02:13:30;;;;;;;480.77;242.00;;;;;;;8.44;100.00;98933.63;4833671;29;20065;-64
2021/12/22 02:16:26;;;;;;;464.70;239.82;;;;;;;8.54;100.00;98942.81;4846254;29;20045;-64
2021/12/22 02:19:12;;;;;;;466.67;237.73;;;;;;;8.54;100.00;98953.09;4826053;29;20124;-65
2021/12/22 02:22:07;;;;;;;467.90;235.32;;;;;;;8.70;100.00;98948.56;4818182;29;20054;-64
2021/12/22 02:24:59;;;;;;;475.40;236.85;;;;;;;8.83;100.00;98950.88;4836650;29;20057;-64
2021/12/22 02:27:57;;;;;;;464.73;230.07;;;;;;;8.92;100.00;98951.56;4831761;29;20065;-64
2021/12/22 02:30:33;;;;;;;476.40;234.77;;;;;;;8.92;100.00;98944.72;4838376;29;20066;-64
2021/12/22 02:33:26;;;;;;;469.05;233.45;;;;;;;9.10;100.00;98949.47;4822921;29;20050;-64
2021/12/22 02:39:04;;;;;;;465.67;233.30;;;;;;;8.98;100.00;98952.28;4819473;29;20058;-64
2021/12/22 02:41:54;;;;;;;479.25;236.35;;;;;;;9.03;100.00;98947.91;4831807;29;20058;-64
2021/12/22 02:44:36;;;;;;;461.73;234.65;;;;;;;9.33;100.00;98946.47;4832669;29;20050;-63
2021/12/22 02:47:29;;;;;;;458.05;232.25;;;;;;;9.39;100.00;98955.75;4836989;29;20140;-64
2021/12/22 02:50:15;;;;;;;470.67;233.15;;;;;;;9.32;100.00;98967.06;4831670;29;20144;-61
2021/12/22 02:53:15;;;;;;;469.13;228.20;;;;;;;9.29;100.00;98985.94;4840664;29;20118;-62
2021/12/22 03:02:12;;;;;;;467.40;231.55;;;;;;;9.45;100.00;98984.75;4852352;29;20061;-64
2021/12/22 03:05:04;;;;;;;463.45;229.68;;;;;;;9.72;100.00;98980.78;4846914;29;20068;-64
2021/12/22 03:07:54;;;;;;;463.95;229.80;;;;;;;9.69;100.00;98975.69;4841157;29;20053;-64
2021/12/22 03:10:38;;;;;;;459.48;224.45;;;;;;;9.81;100.00;98975.44;4857605;29;20053;-64
2021/12/22 03:13:30;;;;;;;473.02;226.75;;;;;;;9.99;100.00;98980.13;4859932;29;20042;-64
2021/12/22 03:16:13;;;;;;;461.38;226.20;;;;;;;10.15;100.00;98985.78;4872140;29;20053;-64
2021/12/22 03:19:10;;;;;;;461.55;220.18;;;;;;;10.34;100.00;98991.38;4857538;29;20779;-63
2021/12/22 03:21:48;;;;;;;464.35;227.18;;;;;;;10.48;100.00;99001.34;4859753;29;20573;-62
2021/12/22 03:24:38;;;;;;;450.55;220.75;;;;;;;10.61;100.00;98987.28;4857302;29;20053;-62
2021/12/22 03:27:27;;;;;;;430.00;213.77;;;;;;;10.77;100.00;98985.16;4862570;29;20396;-64
2021/12/22 03:30:19;;;;;;;424.33;210.65;;;;;;;11.29;100.00;98994.91;4866799;29;20060;-62
2021/12/22 03:33:01;;;;;;;426.05;210.85;;;;;;;11.56;100.00;98996.72;4862353;29;20782;-62
2021/12/22 03:35:49;;;;;;;439.95;212.77;;;;;;;11.72;100.00;98995.38;4862128;29;20045;-62
2021/12/22 03:38:38;;;;;;;406.50;190.95;;;;;;;11.92;100.00;99004.28;4860912;29;20050;-62
2021/12/22 03:41:34;;;;;;;396.63;192.43;;;;;;;12.37;100.00;99002.03;4859915;29;20060;-62
2021/12/22 03:44:11;;;;;;;421.75;202.85;;;;;;;12.69;100.00;99001.78;4860841;29;20065;-62
2021/12/22 03:47:00;;;;;;;444.98;214.02;;;;;;;12.70;100.00;99002.63;4860964;29;20452;-63
2021/12/22 03:49:42;;;;;;;424.75;203.45;;;;;;;13.25;100.00;99010.19;4856393;29;20561;-62
2021/12/22 03:52:37;;;;;;;407.30;202.32;;;;;;;13.66;100.00;99023.38;4864974;29;20058;-63
2021/12/22 03:55:12;;;;;;;413.15;200.15;;;;;;;13.91;100.00;99028.50;4860246;29;20080;-63
2021/12/22 03:58:00;;;;;;;397.25;191.52;;;;;;;14.08;100.00;99039.91;4868070;29;20060;-64
2021/12/22 04:00:46;;;;;;;355.90;176.10;;;;;;;14.08;100.00;99034.72;4858565;29;20124;-64
2021/12/22 04:03:39;;;;;;;378.40;182.38;;;;;;;14.44;100.00;99045.47;4859507;29;20144;-64
2021/12/22 04:06:22;;;;;;;368.27;182.68;;;;;;;14.58;100.00;99049.22;4848369;29;20057;-64
2021/12/22 04:09:13;;;;;;;368.63;177.20;;;;;;;14.65;100.00;99054.09;4860278;29;20116;-63
2021/12/22 04:11:55;;;;;;;345.58;173.73;;;;;;;15.03;100.00;99059.47;4865707;29;20801;-64
2021/12/22 04:14:43;;;;;;;354.20;175.60;;;;;;;14.77;97.02;99063.13;4867431;29;20129;-64
2021/12/22 04:17:25;;;;;;;337.13;170.07;;;;;;;15.17;99.17;99051.94;4855015;29;20060;-63
2021/12/22 04:20:13;;;;;;;349.17;176.82;;;;;;;15.14;95.54;99055.53;4860453;29;20170;-63
2021/12/22 04:22:56;;;;;;;359.30;180.15;;;;;;;15.19;96.67;99063.94;4850536;29;20058;-64
2021/12/22 04:25:47;;;;;;;339.13;168.23;;;;;;;15.29;91.19;99070.44;4863826;29;20391;-64
2021/12/22 04:28:36;;;;;;;312.10;153.68;;;;;;;15.86;88.64;99074.00;4849412;29;20053;-65
2021/12/22 04:31:19;;;;;;;301.67;148.43;;;;;;;16.10;85.95;99060.81;4858947;29;20431;-64
2021/12/22 04:34:10;;;;;;;294.13;148.05;;;;;;;16.50;80.18;99067.56;4847927;29;20053;-65
2021/12/22 04:36:53;;;;;;;296.40;152.45;;;;;;;16.25;84.52;99060.94;4845978;29;20144;-64
2021/12/22 04:39:42;;;;;;;301.02;152.63;;;;;;;16.19;84.23;99065.59;4850549;29;20062;-64
2021/12/22 04:42:25;;;;;;;291.23;149.90;;;;;;;16.33;84.95;99066.63;4851425;29;20525;-63
2021/12/22 04:45:15;;;;;;;292.13;149.82;;;;;;;16.39;88.64;99075.88;4855724;29;20087;-62
2021/12/22 04:47:57;;;;;;;307.38;149.13;;;;;;;16.42;88.21;99079.19;4853831;29;20049;-64
2021/12/22 04:50:48;;;;;;;292.90;148.38;;;;;;;16.62;81.97;99080.00;4854200;29;20059;-65
2021/12/22 04:53:40;;;;;;;295.80;146.48;;;;;;;16.33;86.12;99064.03;4861934;29;20052;-65
2021/12/22 04:56:29;;;;;;;280.42;137.52;;;;;;;16.34;83.71;99062.25;4856500;29;21630;-64
2021/12/22 04:59:12;;;;;;;273.50;139.32;;;;;;;16.01;81.01;99064.69;4856333;29;20057;-64
2021/12/22 05:02:02;;;;;;;262.88;129.57;;;;;;;16.18;78.02;99049.16;4856627;29;20197;-64
2021/12/22 05:04:44;;;;;;;272.25;132.63;;;;;;;16.30;82.30;99053.75;4854878;29;20081;-64
2021/12/22 05:07:34;;;;;;;260.77;129.52;;;;;;;16.47;82.22;99050.34;4863213;29;20057;-64
2021/12/22 05:10:31;;;;;;;265.88;130.43;;;;;;;16.44;78.56;99048.72;4855916;29;20070;-63
2021/12/22 05:13:07;;;;;;;293.42;146.02;;;;;;;16.44;79.55;99051.34;4856513;29;20140;-62
2021/12/22 05:15:56;;;;;;;297.33;147.32;;;;;;;16.38;83.22;99061.19;4864230;29;20507;-63
2021/12/22 05:19:29;;;;;;;305.05;146.75;;;;;;;16.40;81.56;99054.16;4857523;29;20152;-63
2021/12/22 05:21:53;;;;;;;281.65;139.90;;;;;;;16.86;76.90;99052.81;4850505;29;20667;-63
2021/12/22 05:24:43;;;;;;;279.95;142.43;;;;;;;16.87;79.29;99064.06;4863327;29;20065;-64
2021/12/22 05:27:25;;;;;;;301.83;142.95;;;;;;;17.46;78.26;99056.69;4858829;29;20498;-64
2021/12/22 05:30:18;;;;;;;282.13;139.30;;;;;;;17.03;75.36;99060.63;4857129;29;20415;-63
2021/12/22 05:33:00;;;;;;;293.73;141.57;;;;;;;17.38;76.54;99050.19;4854032;29;20561;-63
2021/12/22 05:35:50;;;;;;;305.05;146.73;;;;;;;17.63;73.68;99048.00;4856303;29;20145;-62
2021/12/22 05:38:32;;;;;;;302.08;146.18;;;;;;;17.75;76.26;99049.13;4853165;29;20053;-63
2021/12/22 05:41:22;;;;;;;319.70;147.23;;;;;;;17.81;74.86;99054.84;4861133;29;20060;-63
2021/12/22 05:44:06;;;;;;;302.98;149.80;;;;;;;17.71;75.29;99045.84;4853791;29;20061;-63
2021/12/22 05:46:56;;;;;;;302.63;145.73;;;;;;;17.76;75.28;99043.81;4854754;29;20109;-63
2021/12/22 05:50:11;;;;;;;281.40;136.60;;;;;;;17.85;72.04;99048.56;4846362;29;20521;-62
2021/12/22 05:53:07;;;;;;;226.70;114.28;;;;;;;18.19;68.31;99049.34;4858484;29;20049;-62
2021/12/22 05:55:57;;;;;;;231.95;116.68;;;;;;;18.08;70.42;99044.69;4860962;29;20053;-62
2021/12/22 05:58:47;;;;;;;241.60;120.40;;;;;;;18.26;67.49;99040.25;4854622;29;20064;-62
2021/12/22 06:01:30;;;;;;;260.65;131.35;;;;;;;18.20;69.53;99033.56;4862461;29;20060;-62
2021/12/22 06:04:20;;;;;;;276.23;131.63;;;;;;;18.18;70.80;99032.00;4858500;29;20110;-63
2021/12/22 06:07:09;;;;;;;275.75;134.90;;;;;;;18.38;69.31;99021.28;4859870;29;20136;-63
2021/12/22 06:09:52;;;;;;;277.67;133.68;;;;;;;18.38;68.84;99007.38;4861764;29;20650;-62
2021/12/22 06:12:47;;;;;;;271.90;139.90;;;;;;;18.33;68.69;99005.06;4858525;29;20061;-62
2021/12/22 06:15:23;;;;;;;265.38;137.50;;;;;;;18.58;69.85;98999.31;4856798;29;20060;-61
2021/12/22 06:18:20;;;;;;;286.75;142.85;;;;;;;18.20;68.05;98993.59;4854254;29;20077;-63
2021/12/22 06:20:58;;;;;;;269.33;138.43;;;;;;;18.42;71.40;98996.72;4860166;29;20070;-62
2021/12/22 06:23:46;;;;;;;289.92;136.07;;;;;;;18.47;67.79;98991.22;4845303;29;20482;-61
2021/12/22 06:26:30;;;;;;;266.10;136.13;;;;;;;18.61;67.11;98989.53;4854087;29;20049;-62
2021/12/22 06:29:19;;;;;;;263.13;128.27;;;;;;;18.66;67.66;98984.91;4852454;29;20631;-61
2021/12/22 06:32:01;;;;;;;237.95;115.68;;;;;;;18.60;64.29;98971.34;4857427;29;20136;-62
2021/12/22 06:34:50;;;;;;;225.05;110.18;;;;;;;18.64;66.80;98963.25;4861256;29;20125;-61
2021/12/22 06:37:40;;;;;;;217.98;110.57;;;;;;;18.70;67.65;98952.47;4861815;29;20434;-62
2021/12/22 06:40:29;;;;;;;228.32;113.95;;;;;;;18.82;63.70;98950.06;4858253;29;20061;-62
2021/12/22 06:43:17;;;;;;;225.25;115.53;;;;;;;18.95;63.73;98945.78;4853833;29;20045;-62
2021/12/22 06:45:59;;;;;;;224.52;112.20;;;;;;;18.92;61.80;98951.19;4854945;29;20057;-62
2021/12/22 06:48:48;;;;;;;233.85;111.28;;;;;;;19.05;63.23;98941.69;4853009;29;20636;-63
2021/12/22 06:51:44;;;;;;;243.20;122.60;;;;;;;18.61;60.18;98934.72;4852789;29;20132;-62
2021/12/22 06:54:32;;;;;;;244.82;126.78;;;;;;;18.85;61.44;98923.75;4832799;29;20050;-62
2021/12/22 06:57:22;;;;;;;282.23;139.85;;;;;;;18.85;63.67;98926.38;4835996;29;20130;-62
2021/12/22 07:00:13;;;;;;;280.90;142.90;;;;;;;18.96;63.24;98923.97;4835770;29;20058;-62
2021/12/22 07:03:04;;;;;;;281.35;144.80;;;;;;;18.77;62.16;98908.56;4847138;29;20136;-62
2021/12/22 07:05:48;;;;;;;284.42;144.15;;;;;;;18.73;61.82;98902.69;4845262;29;20125;-63
2021/12/22 07:08:37;;;;;;;269.40;138.43;;;;;;;18.78;62.49;98891.13;4840554;29;20470;-61
2021/12/22 07:11:19;;;;;;;273.27;139.82;;;;;;;18.79;63.69;98892.81;4837283;29;20053;-62
2021/12/22 07:14:09;;;;;;;264.25;135.85;;;;;;;18.74;61.32;98885.28;4841278;29;20084;-62
2021/12/22 07:16:51;;;;;;;265.95;136.00;;;;;;;18.71;63.02;98891.50;4837848;29;20054;-62
2021/12/22 07:19:41;;;;;;;250.63;136.15;;;;;;;18.78;60.47;98885.91;4835241;29;20585;-62
2021/12/22 07:22:23;;;;;;;276.08;133.35;;;;;;;18.75;63.63;98871.28;4836231;29;20054;-63
2021/12/22 07:25:15;;;;;;;268.30;135.75;;;;;;;18.94;62.30;98866.63;4847016;29;20754;-63
2021/12/22 07:27:58;;;;;;;274.98;138.43;;;;;;;18.98;60.80;98859.44;4844732;29;20077;-63
2021/12/22 07:30:49;;;;;;;270.65;139.27;;;;;;;18.88;62.74;98851.34;4843798;29;20057;-63
2021/12/22 07:33:45;;;;;;;263.73;142.60;;;;;;;18.89;63.13;98845.19;4847183;29;20114;-63
2021/12/22 07:36:21;;;;;;;280.75;143.65;;;;;;;18.90;63.80;98838.19;4845706;29;20056;-63
2021/12/22 07:39:09;;;;;;;282.67;144.57;;;;;;;18.96;64.50;98838.66;4842371;29;20046;-63
2021/12/22 07:41:59;;;;;;;294.98;147.20;;;;;;;18.79;62.66;98835.38;4839972;29;20482;-62
2021/12/22 07:44:48;;;;;;;276.52;144.38;;;;;;;18.60;59.82;98820.81;4846063;29;20114;-63
2021/12/22 07:47:37;;;;;;;282.50;143.75;;;;;;;18.94;61.89;98818.78;4843516;29;20049;-63
2021/12/22 07:50:19;;;;;;;282.02;142.30;;;;;;;18.87;60.49;98822.69;4850673;29;20053;-64
2021/12/22 07:53:08;;;;;;;260.05;135.30;;;;;;;18.78;60.54;98831.94;4835725;29;20458;-63
2021/12/22 07:55:54;;;;;;;267.63;137.40;;;;;;;18.88;61.30;98816.56;4864916;29;20067;-63
2021/12/22 07:58:44;;;;;;;250.30;134.80;;;;;;;18.71;59.46;98810.59;4872189;29;20177;-63
2021/12/22 08:01:32;;;;;;;246.63;127.80;;;;;;;18.63;58.99;98807.59;4846790;29;20080;-63
2021/12/22 08:04:22;;;;;;;244.82;122.68;;;;;;;18.75;59.14;98799.97;4853850;29;20054;-62
2021/12/22 08:07:05;;;;;;;246.88;119.05;;;;;;;18.97;59.79;98782.88;4853679;29;20049;-62
2021/12/22 08:09:55;;;;;;;220.48;118.80;;;;;;;19.06;57.68;98790.16;4858127;29;20063;-62
2021/12/22 08:12:38;;;;;;;212.30;113.28;;;;;;;18.99;55.72;98778.41;4863923;29;20683;-62
2021/12/22 08:15:28;;;;;;;222.55;111.15;;;;;;;19.05;55.05;98778.03;4860607;29;20064;-62
2021/12/22 08:18:12;;;;;;;214.02;112.25;;;;;;;19.10;55.66;98778.56;4857636;29;20126;-63
2021/12/22 08:21:03;;;;;;;220.70;114.90;;;;;;;19.10;55.97;98772.50;4873620;29;20169;-62
2021/12/22 08:23:48;;;;;;;228.10;116.80;;;;;;;19.04;55.93;98772.88;4875857;29;20060;-63
2021/12/22 08:26:37;;;;;;;263.00;127.45;;;;;;;19.05;56.78;98764.13;4860038;29;20581;-62
2021/12/22 08:29:19;;;;;;;259.27;131.70;;;;;;;19.00;60.15;98763.56;4866640;29;20146;-63
2021/12/22 08:32:08;;;;;;;239.43;123.53;;;;;;;18.99;58.93;98765.34;4862768;29;20139;-63
2021/12/22 08:34:55;;;;;;;237.75;123.55;;;;;;;18.91;60.01;98772.00;4876432;29;20048;-63
2021/12/22 08:40:47;;;;;;;232.88;121.13;;;;;;;18.74;59.86;98765.22;4875590;29;20068;-62
2021/12/22 08:43:37;;;;;;;229.73;121.20;;;;;;;18.66;56.36;98767.44;4875719;29;20416;-62
2021/12/22 08:46:22;;;;;;;233.07;115.53;;;;;;;18.67;53.90;98746.47;4861948;29;20072;-62
2021/12/22 08:49:14;;;;;;;215.80;111.47;;;;;;;18.63;55.02;98731.09;4856100;29;20081;-63
2021/12/22 08:52:04;;;;;;;221.77;112.22;;;;;;;18.80;59.25;98736.09;4838688;29;20066;-63
2021/12/22 08:54:52;;;;;;;193.23;99.05;;;;;;;18.79;52.21;98741.41;4831238;29;20141;-62
2021/12/22 08:57:35;;;;;;;192.63;102.32;;;;;;;18.82;51.88;98733.41;4824219;29;20133;-63
2021/12/22 09:00:23;;;;;;;203.75;104.28;;;;;;;18.77;51.52;98732.84;4838085;29;20058;-62
2021/12/22 09:03:06;;;;;;;211.57;105.25;;;;;;;18.68;50.30;98737.69;4842651;29;20541;-62
2021/12/22 09:05:55;;;;;;;211.57;106.18;;;;;;;18.60;50.49;98721.66;4846037;29;20837;-63
2021/12/22 09:08:38;;;;;;;221.25;109.80;;;;;;;18.77;53.88;98711.94;4844961;29;20117;-62
2021/12/22 09:11:27;;;;;;;241.70;116.57;;;;;;;18.76;56.30;98705.09;4841675;29;20148;-62
2021/12/22 09:14:18;;;;;;;230.43;118.47;;;;;;;18.82;58.76;98704.69;4845789;29;20435;-63
2021/12/22 09:17:06;;;;;;;248.35;124.18;;;;;;;18.63;58.09;98690.19;4847586;29;20132;-63
2021/12/22 09:19:55;;;;;;;240.85;123.90;;;;;;;18.59;56.11;98672.22;4844275;29;20576;-63
2021/12/22 09:22:37;;;;;;;255.32;124.18;;;;;;;18.59;56.71;98678.28;4843404;29;20057;-63
2021/12/22 09:25:26;;;;;;;248.20;125.30;;;;;;;18.53;56.16;98676.00;4840577;29;20053;-63
2021/12/22 09:28:23;;;;;;;249.55;123.38;;;;;;;18.57;69.62;98669.69;4839320;29;20041;-62
2021/12/22 09:30:59;;;;;;;242.55;125.18;;;;;;;18.49;70.80;98666.69;4844542;29;20363;-62
2021/12/22 09:33:58;;;;;;;252.02;130.35;;;;;;;18.48;79.22;98672.00;4845752;29;20098;-63
2021/12/22 09:36:35;;;;;;;261.02;128.20;;;;;;;18.22;87.70;98657.94;4842829;29;20061;-63
2021/12/22 09:39:32;;;;;;;251.00;131.02;;;;;;;18.15;86.04;98656.66;4843591;29;20050;-64
2021/12/22 09:42:09;;;;;;;248.80;127.78;;;;;;;18.05;87.55;98651.16;4843329;29;20056;-64
2021/12/22 09:45:05;;;;;;;248.88;132.05;;;;;;;17.95;92.44;98643.09;4845376;29;20229;-63
2021/12/22 09:48:02;;;;;;;254.73;128.52;;;;;;;17.93;82.89;98647.53;4843266;29;20224;-63
2021/12/22 09:53:38;;;;;;;243.93;126.95;;;;;;;18.03;78.17;98653.03;4856015;29;20072;-64
2021/12/22 09:56:27;;;;;;;246.30;126.72;;;;;;;17.89;84.07;98650.41;4863540;29;20526;-63
2021/12/22 09:59:10;;;;;;;246.27;128.18;;;;;;;17.83;86.37;98643.81;4859923;29;20045;-64
2021/12/22 10:01:59;;;;;;;236.95;126.18;;;;;;;17.74;83.32;98641.75;4864434;29;20061;-64
2021/12/22 10:04:43;;;;;;;237.13;114.90;;;;;;;17.66;67.36;98654.38;4878809;29;20103;-64
2021/12/22 10:07:37;;;;;;;237.45;113.35;;;;;;;17.69;69.37;98649.00;4864343;29;20140;-63
2021/12/22 10:10:15;;;;;;;219.55;105.05;;;;;;;17.74;60.97;98646.13;4860075;29;20516;-63
2021/12/22 10:13:18;;;;;;;224.55;105.90;;;;;;;17.68;60.71;98642.13;4865254;29;20124;-63
2021/12/22 10:16:14;;;;;;;224.63;107.78;;;;;;;17.78;71.96;98625.00;4863230;29;20853;-63
2021/12/22 10:19:15;;;;;;;213.15;109.78;;;;;;;17.78;72.00;98625.00;4861981;29;20061;-64
2021/12/22 10:22:04;;;;;;;217.25;106.50;;;;;;;17.82;75.32;98638.69;4864669;29;20148;-63
2021/12/22 10:24:51;;;;;;;222.25;108.60;;;;;;;17.66;78.64;98633.53;4866514;29;20048;-63
2021/12/22 10:27:44;;;;;;;224.23;111.13;;;;;;;17.51;79.77;98645.69;4862986;29;20140;-64
2021/12/22 10:30:38;;;;;;;216.75;110.85;;;;;;;17.42;82.35;98645.38;4859251;29;20054;-64
2021/12/22 10:33:32;;;;;;;222.48;103.38;;;;;;;17.34;77.64;98647.59;4863317;29;20081;-63
2021/12/22 10:36:27;;;;;;;213.77;106.80;;;;;;;17.29;81.92;98640.06;4861287;29;20049;-63
2021/12/22 10:39:18;;;;;;;226.45;110.38;;;;;;;17.19;79.21;98651.91;4858480;29;20104;-64
2021/12/22 10:42:17;;;;;;;238.80;116.95;;;;;;;17.18;84.77;98652.84;4870416;29;20052;-63
2021/12/22 10:45:17;;;;;;;260.05;122.18;;;;;;;17.09;85.82;98654.19;4869967;29;20057;-63
2021/12/22 10:51:13;;;;;;;290.50;140.38;;;;;;;17.13;85.80;98647.06;4869781;29;20133;-64
2021/12/22 10:54:21;;;;;;;339.43;154.63;;;;;;;17.09;86.29;98649.00;4849153;29;20784;-64
2021/12/22 10:57:00;;;;;;;317.42;156.30;;;;;;;17.02;88.91;98639.84;4848515;29;20058;-64
2021/12/22 10:59:50;;;;;;;332.52;157.63;;;;;;;17.00;89.92;98636.50;4851279;29;20073;-63
2021/12/22 11:02:35;;;;;;;327.40;161.32;;;;;;;17.00;95.63;98641.69;4845078;29;20061;-63
2021/12/22 11:05:28;;;;;;;361.83;170.97;;;;;;;16.89;94.27;98638.88;4841875;29;20095;-64
2021/12/22 11:08:31;;;;;;;364.45;170.93;;;;;;;16.83;99.17;98637.47;4843075;29;20045;-63
2021/12/22 11:11:19;;;;;;;366.15;170.57;;;;;;;16.74;99.03;98634.53;4847110;29;20069;-64
2021/12/22 11:14:17;;;;;;;382.92;180.38;;;;;;;16.65;99.29;98642.84;4842111;29;20433;-63
2021/12/22 11:17:24;;;;;;;372.55;177.73;;;;;;;16.54;98.28;98633.00;4847035;29;20144;-63
2021/12/22 11:20:05;;;;;;;382.52;183.27;;;;;;;16.50;99.54;98635.88;4841565;29;20050;-64
2021/12/22 11:23:04;;;;;;;376.55;182.23;;;;;;;16.41;100.00;98634.59;4842165;29;20053;-64
2021/12/22 11:25:53;;;;;;;382.05;184.23;;;;;;;16.32;100.00;98637.69;4845146;29;20057;-64
2021/12/22 11:28:36;;;;;;;378.27;189.30;;;;;;;16.19;100.00;98634.94;4841894;29;20117;-63
2021/12/22 11:31:26;;;;;;;393.85;187.98;;;;;;;16.07;100.00;98649.41;4838163;29;20081;-63
2021/12/22 11:34:10;;;;;;;396.73;191.82;;;;;;;15.95;100.00;98646.63;4844631;29;20161;-63
2021/12/22 11:37:00;;;;;;;389.20;187.85;;;;;;;15.89;100.00;98647.75;4844480;29;20137;-64
2021/12/22 11:39:49;;;;;;;402.85;190.35;;;;;;;15.79;100.00;98641.38;4841481;29;20054;-64
2021/12/22 11:42:45;;;;;;;397.52;192.25;;;;;;;15.68;100.00;98634.13;4817784;29;20058;-63
2021/12/22 11:45:23;;;;;;;414.55;193.10;;;;;;;15.57;100.00;98625.19;4843122;29;20050;-63
2021/12/22 11:48:12;;;;;;;397.98;191.57;;;;;;;15.37;100.00;98615.81;4839021;29;20516;-63
2021/12/22 11:51:01;;;;;;;390.83;189.93;;;;;;;15.35;100.00;98612.44;4839573;29;20054;-63
2021/12/22 11:54:02;;;;;;;384.40;189.63;;;;;;;15.19;100.00;98621.91;4854786;29;20140;-64
2021/12/22 11:56:51;;;;;;;402.95;195.73;;;;;;;15.19;100.00;98629.69;4870691;29;20164;-63
2021/12/22 11:59:47;;;;;;;395.30;188.85;;;;;;;15.14;100.00;98629.09;4872646;29;20056;-64
2021/12/22 12:02:33;;;;;;;392.20;189.02;;;;;;;15.04;100.00;98640.84;4868302;29;20378;-63
2021/12/22 12:05:35;;;;;;;388.58;190.73;;;;;;;14.99;100.00;98648.84;4860242;29;20136;-62
2021/12/22 12:08:18;;;;;;;397.58;188.95;;;;;;;14.91;100.00;98651.81;4863717;29;20056;-63
2021/12/22 12:11:09;;;;;;;389.77;192.15;;;;;;;14.79;100.00;98644.59;4865659;29;20069;-63
2021/12/22 12:14:05;;;;;;;415.30;193.43;;;;;;;14.67;100.00;98647.78;4871886;29;20735;-64
2021/12/22 12:23:27;;;;;;;423.10;200.07;;;;;;;14.57;100.00;98651.72;4792521;29;20066;-64
2021/12/22 12:26:53;;;;;;;423.00;199.38;;;;;;;14.42;100.00;98650.69;4864029;29;20140;-64
2021/12/22 12:30:13;;;;;;;412.65;199.75;;;;;;;14.46;100.00;98648.78;4864285;29;20160;-63
2021/12/22 12:33:03;;;;;;;429.77;203.27;;;;;;;14.33;100.00;98653.66;4859300;29;20050;-64
2021/12/22 12:35:55;;;;;;;435.30;207.65;;;;;;;14.29;100.00;98666.81;4863496;29;20057;-63
2021/12/22 12:38:49;;;;;;;427.35;208.45;;;;;;;14.22;100.00;98675.78;4864762;29;20359;-64
2021/12/22 12:41:38;;;;;;;445.23;210.68;;;;;;;14.28;100.00;98675.53;4873810;29;20053;-62
2021/12/22 12:44:38;;;;;;;441.05;210.00;;;;;;;14.19;100.00;98674.19;4851124;29;20064;-64
2021/12/22 12:47:48;;;;;;;433.27;211.23;;;;;;;14.16;100.00;98682.91;4863375;29;20049;-64
2021/12/22 12:50:37;;;;;;;438.90;209.02;;;;;;;14.20;100.00;98680.19;4874858;29;20055;-64
2021/12/22 12:53:33;;;;;;;440.10;209.48;;;;;;;14.13;100.00;98683.03;4838171;29;20080;-63
2021/12/22 12:56:33;;;;;;;432.88;212.75;;;;;;;14.20;100.00;98678.44;4862423;29;20052;-64
2021/12/22 12:59:32;;;;;;;441.80;212.80;;;;;;;14.17;100.00;98681.16;4861121;29;20060;-63
2021/12/22 13:02:26;;;;;;;443.40;213.00;;;;;;;14.12;100.00;98690.91;4847296;29;20049;-62
2021/12/22 13:05:22;;;;;;;449.90;212.73;;;;;;;14.23;100.00;98685.22;4850037;29;20057;-64